Time;durP1;ratioP1;P1;durP2;ratioP2;P2;SDS_P1;SDS_P2;PMS_P1;PMS_P2;Temp;Humidity;BMP_temperature;BMP_pressure;BME280_temperature;BME280_humidity;BME280_pressure;Samples;Min_cycle;Max_cycle;Signal;HPM_P1;HPM_P2
2023/02/16 00:01:57;;;;;;;92.37;29.53;;;;;;;5.14;71.27;101476.88;12594941;23;20022;-63
2023/02/16 00:06:59;;;;;;;94.18;31.20;;;;;;;5.17;71.44;101479.28;12595063;23;20250;-61
2023/02/16 00:17:20;;;;;;;93.18;30.50;;;;;;;5.02;71.71;101475.94;12595319;23;20035;-63
2023/02/16 00:22:22;;;;;;;99.22;30.35;;;;;;;5.03;71.42;101477.63;12595884;23;20018;-62
2023/02/16 00:27:23;;;;;;;102.47;32.95;;;;;;;5.09;71.76;101468.34;12595148;23;20345;-61
2023/02/16 00:32:24;;;;;;;107.88;35.22;;;;;;;5.10;71.49;101464.72;12595692;23;20042;-60
2023/02/16 00:37:26;;;;;;;114.22;33.47;;;;;;;5.13;71.17;101468.03;12594618;23;20024;-62
2023/02/16 00:42:31;;;;;;;96.40;29.63;;;;;;;5.10;71.58;101465.56;12596339;23;20023;-63
2023/02/16 00:47:39;;;;;;;98.10;31.27;;;;;;;5.20;71.29;101454.25;12596558;23;20033;-62
2023/02/16 00:52:45;;;;;;;97.78;30.17;;;;;;;5.23;71.44;101451.34;12599244;23;20022;-63
2023/02/16 00:57:51;;;;;;;88.20;29.85;;;;;;;5.06;71.75;101452.59;12599174;23;20026;-62
2023/02/16 01:02:59;;;;;;;104.20;31.40;;;;;;;5.04;71.58;101451.88;12600314;23;20370;-62
2023/02/16 01:13:22;;;;;;;99.63;32.28;;;;;;;5.05;71.99;101449.06;12598986;23;20018;-62
2023/02/16 01:18:23;;;;;;;102.88;32.08;;;;;;;5.04;71.76;101460.69;12652203;23;20135;-61
2023/02/16 01:23:25;;;;;;;100.50;28.85;;;;;;;5.03;71.55;101450.16;12661148;23;20022;-63
2023/02/16 01:28:26;;;;;;;99.82;31.83;;;;;;;4.99;72.23;101440.69;12657895;23;20025;-61
2023/02/16 01:33:28;;;;;;;106.03;31.33;;;;;;;5.00;71.99;101434.41;12659971;23;20085;-61
2023/02/16 01:38:30;;;;;;;108.75;30.98;;;;;;;4.90;71.87;101429.75;12659479;23;20026;-63
2023/02/16 01:43:46;;;;;;;106.70;30.95;;;;;;;4.86;72.26;101422.06;12659956;23;20026;-62
2023/02/16 01:48:48;;;;;;;110.15;30.70;;;;;;;4.79;72.19;101424.34;12659048;23;20021;-62
2023/02/16 01:54:15;;;;;;;119.53;32.47;;;;;;;4.76;72.18;101420.09;12659779;23;20046;-63
2023/02/16 01:59:28;;;;;;;106.45;31.77;;;;;;;4.84;71.96;101426.66;12658814;23;20021;-63
2023/02/16 02:10:20;;;;;;;116.68;32.15;;;;;;;4.85;72.01;101415.91;12662606;23;20053;-59
2023/02/16 02:15:26;;;;;;;137.25;35.28;;;;;;;4.82;71.96;101416.13;12640663;23;20026;-62
2023/02/16 02:26:38;;;;;;;120.93;31.45;;;;;;;4.67;72.56;101418.09;12600269;23;20033;-61
2023/02/16 02:32:02;;;;;;;107.85;29.80;;;;;;;4.58;72.93;101408.09;12600803;23;20234;-57
2023/02/16 02:37:21;;;;;;;124.45;29.08;;;;;;;4.52;72.76;101405.88;12603957;23;20042;-61
2023/02/16 02:42:32;;;;;;;112.25;29.92;;;;;;;4.62;72.60;101387.41;12600631;23;20014;-62
2023/02/16 02:47:45;;;;;;;108.90;30.13;;;;;;;4.53;72.84;101386.28;12598391;23;20022;-57
2023/02/16 02:52:46;;;;;;;109.68;28.40;;;;;;;4.48;73.04;101383.97;12599404;23;20022;-61
2023/02/16 03:03:32;;;;;;;136.70;28.63;;;;;;;4.46;72.98;101391.19;12556685;23;20026;-58
2023/02/16 03:08:38;;;;;;;125.30;29.13;;;;;;;4.43;72.86;101396.75;12572648;23;20090;-58
2023/02/16 03:13:44;;;;;;;103.45;26.50;;;;;;;4.44;72.92;101394.94;12597438;23;20454;-58
2023/02/16 03:29:34;;;;;;;146.98;28.63;;;;;;;4.32;73.18;101400.16;12596438;23;20026;-59
2023/02/16 03:34:36;;;;;;;111.50;25.80;;;;;;;4.26;73.47;101413.06;12597211;23;20030;-58
2023/02/16 03:44:58;;;;;;;127.53;25.05;;;;;;;4.25;73.29;101406.91;12597265;23;20022;-59
2023/02/16 03:50:00;;;;;;;137.32;27.30;;;;;;;4.22;73.47;101400.94;12609953;23;20034;-60
2023/02/16 03:55:01;;;;;;;103.53;26.30;;;;;;;4.29;73.52;101399.56;12596814;23;20053;-58
2023/02/16 04:00:03;;;;;;;119.90;27.30;;;;;;;4.22;73.62;101387.63;12596775;23;20026;-59
2023/02/16 04:05:04;;;;;;;151.30;26.20;;;;;;;4.22;73.71;101391.16;12598155;23;20093;-58
2023/02/16 04:10:06;;;;;;;163.30;28.15;;;;;;;4.16;73.74;101411.06;12597325;23;20025;-58
2023/02/16 04:15:10;;;;;;;121.68;24.45;;;;;;;4.17;73.78;101402.13;12595823;23;20022;-59
2023/02/16 04:20:16;;;;;;;127.40;24.63;;;;;;;4.15;73.80;101400.53;12598947;23;20023;-59
2023/02/16 04:25:18;;;;;;;110.97;24.42;;;;;;;4.20;74.05;101398.38;12601190;23;20023;-58
2023/02/16 04:30:26;;;;;;;168.75;27.45;;;;;;;4.24;73.94;101401.69;12605617;23;20029;-59
2023/02/16 04:35:27;;;;;;;;;;;;;;;4.10;74.08;101405.31;12601793;23;20054;-59
2023/02/16 04:40:28;;;;;;;93.00;21.75;;;;;;;4.09;73.91;101403.63;12600814;23;19917;-60
2023/02/16 04:45:30;;;;;;;103.47;22.52;;;;;;;4.00;74.42;101406.94;12601193;23;20450;-58
2023/02/16 04:50:31;;;;;;;105.30;24.90;;;;;;;4.08;73.86;101410.75;12602105;23;20030;-59
2023/02/16 04:55:33;;;;;;;135.98;22.35;;;;;;;4.06;74.00;101412.66;12599562;23;20022;-58
2023/02/16 05:00:34;;;;;;;123.05;24.42;;;;;;;4.14;73.78;101406.81;12601823;23;20070;-59
2023/02/16 05:05:37;;;;;;;101.13;22.42;;;;;;;4.21;73.70;101405.41;12601482;23;20026;-59
2023/02/16 05:10:38;;;;;;;116.18;23.88;;;;;;;4.20;73.84;101400.19;12600988;23;20018;-59
2023/02/16 05:15:39;;;;;;;114.88;26.17;;;;;;;4.18;73.86;101402.97;12598385;23;20027;-59
2023/02/16 05:26:03;;;;;;;92.60;21.73;;;;;;;4.07;74.33;101411.72;12543367;23;20026;-59
2023/02/16 05:31:04;;;;;;;85.72;21.65;;;;;;;4.01;74.55;101408.63;12536682;23;20025;-59
2023/02/16 05:36:07;;;;;;;98.82;23.48;;;;;;;3.88;75.07;101412.13;12534421;23;20073;-59
2023/02/16 05:41:08;;;;;;;137.98;25.08;;;;;;;3.86;75.09;101418.53;12536566;23;20074;-57
2023/02/16 05:46:10;;;;;;;86.70;22.92;;;;;;;4.02;74.58;101413.00;12537171;23;20018;-58
2023/02/16 05:51:11;;;;;;;87.78;23.00;;;;;;;3.96;74.52;101423.09;12540332;23;20837;-58
2023/02/16 05:56:13;;;;;;;92.65;22.25;;;;;;;3.92;74.59;101420.75;12537887;23;20030;-59
2023/02/16 06:01:15;;;;;;;91.78;21.20;;;;;;;3.90;75.06;101430.66;12537166;23;20051;-62
2023/02/16 06:06:17;;;;;;;96.55;22.65;;;;;;;3.93;74.73;101430.44;12537291;23;20054;-59
2023/02/16 06:11:36;;;;;;;78.05;20.80;;;;;;;4.00;74.72;101418.41;12549638;23;20035;-58
2023/02/16 06:16:40;;;;;;;101.22;21.23;;;;;;;3.94;74.77;101427.66;12571285;23;20030;-58
2023/02/16 06:21:41;;;;;;;82.07;22.13;;;;;;;4.02;74.38;101424.47;12595209;23;20760;-58
2023/02/16 06:26:43;;;;;;;98.43;22.38;;;;;;;3.96;74.99;101428.41;12591537;23;20030;-58
2023/02/16 06:31:44;;;;;;;82.55;22.23;;;;;;;4.06;74.65;101441.09;12591362;23;20018;-58
2023/02/16 06:36:46;;;;;;;95.80;23.15;;;;;;;3.97;74.50;101451.41;12583926;23;20022;-61
2023/02/16 06:41:47;;;;;;;78.93;20.55;;;;;;;4.00;74.89;101449.50;12613275;23;20586;-62
2023/02/16 06:46:48;;;;;;;73.07;22.23;;;;;;;3.98;74.92;101452.25;12610373;23;20073;-59
2023/02/16 06:51:50;;;;;;;73.68;21.30;;;;;;;3.95;75.18;101445.34;12601861;23;20022;-61
2023/02/16 06:56:51;;;;;;;69.95;21.10;;;;;;;3.98;74.93;101452.25;12598148;23;20030;-61
2023/02/16 07:01:52;;;;;;;80.88;20.95;;;;;;;4.04;74.60;101467.78;12595829;23;20022;-60
2023/02/16 07:06:54;;;;;;;71.25;21.85;;;;;;;3.91;75.17;101462.47;12571278;23;20057;-60
2023/02/16 07:11:55;;;;;;;86.13;23.52;;;;;;;4.00;75.11;101453.00;12597937;23;20060;-60
2023/02/16 07:16:58;;;;;;;92.05;21.58;;;;;;;3.92;75.19;101455.34;12601585;23;20053;-61
2023/02/16 07:22:00;;;;;;;78.85;20.65;;;;;;;3.93;75.31;101454.38;12624257;23;20316;-59
2023/02/16 07:27:04;;;;;;;88.82;22.45;;;;;;;3.99;74.92;101456.63;12622312;23;20030;-60
2023/02/16 07:32:05;;;;;;;78.40;21.33;;;;;;;3.98;75.07;101468.22;12618915;23;20058;-60
2023/02/16 07:37:06;;;;;;;83.30;21.65;;;;;;;3.92;74.96;101472.16;12596038;23;20042;-59
2023/02/16 07:42:08;;;;;;;102.10;26.45;;;;;;;3.88;74.90;101473.31;12620176;23;20061;-59
2023/02/16 07:47:09;;;;;;;112.43;27.20;;;;;;;3.92;75.20;101471.31;12631629;23;20030;-61
2023/02/16 07:52:10;;;;;;;112.07;26.33;;;;;;;3.91;74.92;101473.13;12622352;23;20152;-62
2023/02/16 07:57:12;;;;;;;96.30;24.92;;;;;;;3.88;75.23;101475.97;12628787;23;20040;-61
2023/02/16 08:02:15;;;;;;;97.15;25.88;;;;;;;3.89;75.10;101479.47;12614991;23;20026;-59
2023/02/16 08:07:17;;;;;;;108.10;25.45;;;;;;;3.78;75.25;101482.88;12598889;23;20624;-58
2023/02/16 08:12:19;;;;;;;85.50;23.40;;;;;;;3.80;75.16;101478.31;12600229;23;20398;-60
2023/02/16 08:17:20;;;;;;;118.72;25.92;;;;;;;3.77;75.12;101475.84;12601512;23;20030;-60
2023/02/16 08:22:22;;;;;;;105.38;27.77;;;;;;;3.88;74.93;101477.78;12619993;23;20022;-61
2023/02/16 08:27:25;;;;;;;109.00;25.88;;;;;;;3.85;74.60;101470.00;12623485;23;20117;-60
2023/02/16 08:32:29;;;;;;;97.53;27.52;;;;;;;3.91;74.82;101467.78;12599885;23;20030;-61
2023/02/16 08:37:30;;;;;;;103.05;26.33;;;;;;;3.81;75.24;101473.81;12611916;23;20145;-61
2023/02/16 08:42:31;;;;;;;117.13;26.88;;;;;;;3.76;75.08;101469.69;12645964;23;20042;-61
2023/02/16 08:47:35;;;;;;;115.28;26.83;;;;;;;3.72;74.87;101478.81;12653120;23;20057;-61
2023/02/16 08:52:37;;;;;;;94.63;26.98;;;;;;;3.67;75.18;101472.94;12637649;23;20021;-61
2023/02/16 08:57:38;;;;;;;98.18;25.95;;;;;;;3.68;74.91;101487.97;12639742;23;20018;-61
2023/02/16 09:02:40;;;;;;;76.72;24.52;;;;;;;3.75;75.04;101491.94;12638005;23;20022;-62
2023/02/16 09:07:41;;;;;;;80.80;23.70;;;;;;;3.79;75.45;101492.53;12629907;23;20062;-61
2023/02/16 09:12:47;;;;;;;74.18;22.38;;;;;;;3.84;74.80;101492.25;12635841;23;20079;-62
2023/02/16 09:17:48;;;;;;;104.43;23.67;;;;;;;3.83;75.25;101495.84;12630008;23;20336;-61
2023/02/16 09:22:50;;;;;;;88.20;22.52;;;;;;;3.79;74.94;101500.53;12634352;23;20026;-62
2023/02/16 09:27:51;;;;;;;60.33;19.50;;;;;;;3.74;75.25;101498.19;12631134;23;20105;-61
2023/02/16 09:32:54;;;;;;;61.65;21.17;;;;;;;3.81;74.88;101498.66;12635844;23;20037;-61
2023/02/16 09:37:57;;;;;;;67.28;25.05;;;;;;;3.98;74.81;101500.13;12647253;23;20026;-62
2023/02/16 09:43:28;;;;;;;52.97;20.58;;;;;;;4.17;74.53;101502.41;12657205;23;20018;-62
2023/02/16 09:48:37;;;;;;;55.45;21.35;;;;;;;4.16;74.52;101503.34;12630185;23;20086;-62
2023/02/16 09:53:42;;;;;;;49.28;18.73;;;;;;;4.08;74.83;101505.69;12629376;23;20034;-63
2023/02/16 09:58:50;;;;;;;48.75;17.80;;;;;;;4.09;74.37;101499.41;12653117;23;20099;-62
2023/02/16 10:04:04;;;;;;;;;;;;;;;4.42;74.26;101496.19;12653802;23;20026;-63
2023/02/16 10:09:15;;;;;;;42.78;17.55;;;;;;;4.69;73.76;101487.22;12654364;23;19961;-64
2023/02/16 10:14:30;;;;;;;39.17;18.08;;;;;;;4.83;74.20;101497.72;12656436;23;20010;-62
2023/02/16 10:19:40;;;;;;;33.05;16.42;;;;;;;4.74;73.86;101498.41;12654988;23;20097;-63
2023/02/16 10:24:51;;;;;;;39.40;17.73;;;;;;;5.08;74.11;101499.47;12654398;23;20054;-62
2023/02/16 10:29:53;;;;;;;37.83;17.48;;;;;;;5.07;73.33;101500.44;12655462;23;20070;-62
2023/02/16 10:35:12;;;;;;;36.53;16.77;;;;;;;5.13;73.59;101491.13;12655152;23;20014;-61
2023/02/16 10:40:44;;;;;;;39.60;17.70;;;;;;;5.15;73.06;101498.09;12628972;23;20034;-62
2023/02/16 10:45:53;;;;;;;39.28;18.38;;;;;;;5.20;73.02;101478.22;12651905;23;20061;-62
2023/02/16 10:51:00;;;;;;;43.03;18.67;;;;;;;5.31;72.42;101480.94;12653674;23;20030;-62
2023/02/16 10:56:26;;;;;;;47.67;19.33;;;;;;;5.26;72.40;101473.28;12653770;23;20065;-62
2023/02/16 11:01:41;;;;;;;43.65;20.42;;;;;;;5.43;71.98;101465.84;12654032;23;20016;-63
2023/02/16 11:07:00;;;;;;;40.75;19.33;;;;;;;5.66;72.23;101454.28;12628976;23;20023;-62
2023/02/16 11:12:24;;;;;;;41.00;19.48;;;;;;;5.83;71.69;101449.50;12654529;23;20074;-62
2023/02/16 11:17:26;;;;;;;40.42;19.50;;;;;;;6.10;70.76;101449.19;12623975;23;20027;-62
2023/02/16 11:22:33;;;;;;;40.58;19.02;;;;;;;6.18;70.35;101430.78;12593246;23;20125;-60
2023/02/16 11:27:34;;;;;;;41.33;20.23;;;;;;;6.15;70.54;101431.84;12591012;23;20085;-61
2023/02/16 11:32:36;;;;;;;36.25;18.15;;;;;;;6.39;70.84;101412.19;12584631;23;20023;-61
2023/02/16 11:37:39;;;;;;;43.35;20.38;;;;;;;6.27;70.95;101406.00;12584550;23;20027;-62
2023/02/16 11:42:47;;;;;;;43.90;20.52;;;;;;;6.20;69.88;101417.28;12590078;23;20062;-63
2023/02/16 11:47:55;;;;;;;49.15;21.45;;;;;;;6.26;69.82;101415.00;12581256;23;20027;-63
2023/02/16 11:53:15;;;;;;;47.17;21.83;;;;;;;6.16;70.19;101416.66;12643581;23;20022;-61
2023/02/16 11:58:20;;;;;;;46.08;20.60;;;;;;;6.17;69.38;101413.03;12649756;23;20030;-62
2023/02/16 12:03:38;;;;;;;47.75;21.77;;;;;;;6.27;69.42;101406.00;12609320;23;20072;-62
2023/02/16 12:08:48;;;;;;;43.00;20.73;;;;;;;6.60;68.49;101400.75;12629736;23;20034;-61
2023/02/16 12:14:02;;;;;;;43.25;20.90;;;;;;;6.83;68.03;101390.84;12605477;23;20030;-62
2023/02/16 12:19:25;;;;;;;47.85;22.35;;;;;;;6.74;68.63;101384.47;12604250;23;20060;-62
2023/02/16 12:24:34;;;;;;;45.65;21.85;;;;;;;7.12;68.07;101378.59;12625241;23;20014;-61
2023/02/16 12:29:43;;;;;;;45.20;21.65;;;;;;;7.02;68.20;101366.13;12619346;23;20121;-61
2023/02/16 12:35:02;;;;;;;45.78;20.88;;;;;;;7.13;67.41;101366.09;12610161;23;20042;-64
2023/02/16 12:40:22;;;;;;;45.92;20.48;;;;;;;7.19;68.38;101367.38;12575751;23;20023;-64
2023/02/16 12:45:29;;;;;;;46.28;22.10;;;;;;;7.47;67.01;101361.41;12604609;23;20018;-65
2023/02/16 12:50:34;;;;;;;41.57;21.27;;;;;;;7.72;67.02;101354.81;12609496;23;20504;-63
2023/02/16 12:55:53;;;;;;;45.30;21.80;;;;;;;7.73;66.26;101342.28;12615968;23;20033;-62
2023/02/16 13:01:00;;;;;;;41.53;21.92;;;;;;;7.67;66.59;101342.81;12628583;23;20022;-62
2023/02/16 13:06:13;;;;;;;41.78;20.85;;;;;;;7.74;66.38;101333.25;12624590;23;20071;-62
2023/02/16 13:11:27;;;;;;;46.42;21.92;;;;;;;8.02;65.84;101333.53;12620664;23;20305;-61
2023/02/16 13:16:43;;;;;;;41.63;21.40;;;;;;;8.07;66.07;101313.38;12623725;23;20044;-62
2023/02/16 13:22:18;;;;;;;41.08;22.38;;;;;;;8.17;65.48;101292.00;12631410;23;20029;-62
2023/02/16 13:27:40;;;;;;;35.05;19.02;;;;;;;8.24;65.53;101274.41;12621300;23;20022;-64
2023/02/16 13:32:55;;;;;;;35.03;19.10;;;;;;;8.22;64.92;101270.16;12624579;23;20559;-62
2023/02/16 13:38:14;;;;;;;38.67;18.77;;;;;;;8.28;65.11;101275.81;12624220;23;20050;-63
2023/02/16 13:43:28;;;;;;;35.47;19.17;;;;;;;8.26;64.91;101271.59;12623946;23;20037;-60
2023/02/16 13:48:38;;;;;;;42.90;20.23;;;;;;;8.32;64.31;101268.34;12622371;23;20077;-61
2023/02/16 13:53:41;;;;;;;35.25;18.30;;;;;;;8.25;64.17;101264.53;12625003;23;20026;-63
2023/02/16 13:58:43;;;;;;;33.80;19.27;;;;;;;8.21;64.67;101257.75;12623417;23;20030;-61
2023/02/16 14:03:44;;;;;;;34.15;19.10;;;;;;;8.19;64.18;101257.88;12627638;23;20545;-61
2023/02/16 14:09:09;;;;;;;32.65;17.92;;;;;;;8.16;64.37;101251.97;12622328;23;20644;-61
2023/02/16 14:14:24;;;;;;;36.70;18.17;;;;;;;8.38;63.72;101240.16;12622743;23;20438;-61
2023/02/16 14:19:25;;;;;;;32.38;17.48;;;;;;;8.40;63.87;101236.34;12619389;23;20026;-61
2023/02/16 14:24:32;;;;;;;42.72;19.02;;;;;;;8.54;63.19;101238.63;12622554;23;20629;-61
2023/02/16 14:29:41;;;;;;;34.50;18.52;;;;;;;8.56;63.66;101230.47;12622061;23;20030;-60
2023/02/16 14:34:52;;;;;;;31.30;17.75;;;;;;;8.53;63.81;101247.69;12621708;23;20058;-60
2023/02/16 14:40:02;;;;;;;33.53;18.02;;;;;;;8.46;63.79;101243.03;12620814;23;20026;-63
2023/02/16 14:45:36;;;;;;;34.67;17.65;;;;;;;8.69;63.32;101246.28;12618930;23;20018;-61
2023/02/16 14:51:24;;;;;;;32.58;17.52;;;;;;;8.93;63.37;101241.31;12622192;23;20027;-62
2023/02/16 14:56:48;;;;;;;39.40;18.63;;;;;;;8.94;63.12;101226.06;12625663;23;20026;-63
2023/02/16 15:01:50;;;;;;;32.90;18.13;;;;;;;8.97;63.42;101223.09;12625113;23;20019;-61
2023/02/16 15:06:51;;;;;;;32.42;17.77;;;;;;;8.95;63.40;101226.91;12627260;23;20032;-61
2023/02/16 15:12:20;;;;;;;31.92;17.75;;;;;;;8.84;63.64;101225.22;12630286;23;20053;-60
2023/02/16 15:17:38;;;;;;;35.00;19.33;;;;;;;8.96;63.62;101216.03;12625677;23;20470;-61
2023/02/16 15:22:47;;;;;;;35.00;19.13;;;;;;;8.99;63.45;101234.53;12630194;23;20026;-60
2023/02/16 15:28:14;;;;;;;33.72;18.92;;;;;;;9.08;63.15;101220.25;12620751;23;20088;-61
2023/02/16 15:33:24;;;;;;;32.38;17.08;;;;;;;9.04;63.58;101228.72;12633308;23;20031;-62
2023/02/16 15:38:32;;;;;;;37.15;19.15;;;;;;;8.91;63.60;101229.88;12631878;23;20315;-61
2023/02/16 15:43:34;;;;;;;32.50;18.65;;;;;;;8.79;63.72;101216.75;12640419;23;20324;-61
2023/02/16 15:48:37;;;;;;;40.60;19.33;;;;;;;8.73;64.33;101216.34;12637860;23;20026;-60
2023/02/16 15:53:47;;;;;;;35.67;18.52;;;;;;;8.70;63.96;101202.38;12635096;23;20022;-61
2023/02/16 15:58:49;;;;;;;46.38;19.60;;;;;;;8.56;64.44;101190.25;12634344;23;20022;-61
2023/02/16 16:03:51;;;;;;;37.13;19.02;;;;;;;8.53;64.83;101190.53;12636208;23;20026;-61
2023/02/16 16:08:53;;;;;;;36.25;19.90;;;;;;;8.54;65.43;101182.38;12639369;23;20019;-61
2023/02/16 16:13:54;;;;;;;39.63;20.30;;;;;;;8.52;65.31;101170.94;12636837;23;20065;-60
2023/02/16 16:19:07;;;;;;;38.90;19.30;;;;;;;8.47;65.35;101170.53;12637606;23;20085;-61
2023/02/16 16:24:10;;;;;;;39.90;19.35;;;;;;;8.50;65.52;101161.38;12641867;23;20022;-61
2023/02/16 16:29:47;;;;;;;40.50;20.05;;;;;;;8.53;65.69;101166.41;12643608;23;20030;-60
2023/02/16 16:34:49;;;;;;;36.88;20.50;;;;;;;8.63;65.00;101145.84;12479344;23;20049;-62
2023/02/16 16:40:18;;;;;;;35.83;21.13;;;;;;;8.73;65.32;101149.34;12640921;23;20261;-61
2023/02/16 16:45:33;;;;;;;39.53;21.25;;;;;;;8.80;64.98;101171.03;12641237;23;20018;-61
2023/02/16 16:50:37;;;;;;;37.03;20.75;;;;;;;8.84;64.92;101159.03;12639134;23;20045;-62
2023/02/16 16:55:40;;;;;;;37.92;21.63;;;;;;;8.86;65.43;101165.09;12638862;23;20019;-62
2023/02/16 17:00:41;;;;;;;40.78;19.95;;;;;;;8.84;65.45;101167.09;12642379;23;20026;-62
2023/02/16 17:05:44;;;;;;;41.65;21.40;;;;;;;8.76;65.94;101168.81;12641723;23;20062;-62
2023/02/16 17:10:45;;;;;;;37.10;21.10;;;;;;;8.66;65.74;101160.78;12639631;23;20130;-61
2023/02/16 17:15:55;;;;;;;38.72;20.55;;;;;;;8.68;65.62;101170.34;12640892;23;20566;-61
2023/02/16 17:20:57;;;;;;;38.47;20.33;;;;;;;8.59;65.59;101160.50;12642757;23;20036;-61
2023/02/16 17:25:58;;;;;;;38.35;20.90;;;;;;;8.47;65.61;101159.81;12644635;23;20019;-61
2023/02/16 17:31:00;;;;;;;38.30;21.17;;;;;;;8.38;66.23;101171.34;12614287;23;20086;-60
2023/02/16 17:36:03;;;;;;;39.58;22.58;;;;;;;8.30;65.75;101173.88;12597416;23;20019;-61
2023/02/16 17:41:05;;;;;;;41.67;21.48;;;;;;;8.21;66.47;101180.06;12601944;23;20030;-60
2023/02/16 17:46:06;;;;;;;47.22;23.35;;;;;;;8.16;66.51;101179.66;12603275;23;20620;-60
2023/02/16 17:51:18;;;;;;;51.58;24.27;;;;;;;8.05;67.29;101186.81;12602468;23;20461;-61
2023/02/16 17:56:22;;;;;;;44.30;22.30;;;;;;;8.06;67.09;101185.84;12599835;23;20074;-59
2023/02/16 18:01:23;;;;;;;41.15;21.88;;;;;;;8.01;67.25;101179.22;12603979;23;20026;-61
2023/02/16 18:06:25;;;;;;;47.88;23.27;;;;;;;8.01;67.49;101182.72;12601503;23;20422;-60
2023/02/16 18:11:29;;;;;;;42.17;22.63;;;;;;;8.01;67.16;101166.66;12601927;23;20086;-61
2023/02/16 18:16:30;;;;;;;46.47;23.27;;;;;;;7.99;66.97;101174.00;12600034;23;20033;-61
2023/02/16 18:21:32;;;;;;;42.38;21.73;;;;;;;7.93;67.46;101158.50;12599689;23;20081;-59
2023/02/16 18:26:33;;;;;;;45.83;22.52;;;;;;;7.89;68.10;101157.06;12601941;23;20804;-60
2023/02/16 18:31:35;;;;;;;48.00;24.35;;;;;;;7.90;67.19;101151.59;12602139;23;20447;-60
2023/02/16 18:36:37;;;;;;;41.25;22.40;;;;;;;7.86;67.22;101144.81;12606319;23;20026;-61
2023/02/16 18:41:39;;;;;;;49.83;22.75;;;;;;;7.74;68.50;101152.13;12601362;23;20085;-59
2023/02/16 18:46:40;;;;;;;47.78;23.02;;;;;;;7.78;68.47;101147.34;12600353;23;20058;-61
2023/02/16 18:51:41;;;;;;;48.50;23.42;;;;;;;7.83;68.40;101158.47;12600388;23;20026;-61
2023/02/16 18:56:43;;;;;;;40.22;20.88;;;;;;;7.93;67.73;101153.13;12600327;23;20481;-59
2023/02/16 19:01:44;;;;;;;45.72;23.98;;;;;;;7.93;67.67;101155.81;12607236;23;20029;-59
2023/02/16 19:06:46;;;;;;;45.75;22.65;;;;;;;7.88;67.97;101158.91;12605271;23;20022;-62
2023/02/16 19:11:47;;;;;;;48.17;23.42;;;;;;;7.85;68.60;101167.22;12603702;23;20085;-60
2023/02/16 19:16:49;;;;;;;41.72;22.00;;;;;;;7.87;68.21;101156.38;12602165;23;20034;-59
2023/02/16 19:21:50;;;;;;;45.20;24.13;;;;;;;7.87;68.39;101156.38;12605967;23;20033;-60
2023/02/16 19:26:51;;;;;;;41.67;22.23;;;;;;;7.79;68.34;101170.44;12578415;23;20115;-61
2023/02/16 19:31:53;;;;;;;48.45;25.75;;;;;;;7.83;68.66;101169.19;12605264;23;20072;-61
2023/02/16 19:36:54;;;;;;;47.97;23.92;;;;;;;7.89;68.41;101175.81;12603355;23;20019;-59
2023/02/16 19:41:56;;;;;;;51.85;23.73;;;;;;;7.84;68.72;101156.63;12602914;23;20430;-61
2023/02/16 19:46:57;;;;;;;48.67;23.95;;;;;;;7.83;69.03;101163.81;12603185;23;20027;-61
2023/02/16 19:52:01;;;;;;;52.17;24.25;;;;;;;7.93;68.78;101162.00;12602629;23;20026;-59
2023/02/16 19:57:03;;;;;;;40.63;22.33;;;;;;;7.93;68.75;101153.13;12603313;23;20086;-59
2023/02/16 20:02:05;;;;;;;44.13;23.55;;;;;;;7.91;69.38;101147.91;12602443;23;20026;-59
2023/02/16 20:07:07;;;;;;;39.85;21.50;;;;;;;7.89;68.69;101143.69;12602004;23;20026;-59
2023/02/16 20:12:09;;;;;;;41.53;22.08;;;;;;;7.83;68.88;101142.41;12603832;23;20030;-59
2023/02/16 20:17:10;;;;;;;44.83;21.88;;;;;;;7.90;68.72;101143.56;12599085;23;20027;-60
2023/02/16 20:22:12;;;;;;;42.38;22.17;;;;;;;7.92;68.94;101138.06;12580903;23;20027;-60
2023/02/16 20:27:13;;;;;;;42.38;22.80;;;;;;;7.97;69.15;101137.66;12605456;23;20037;-60
2023/02/16 20:32:15;;;;;;;47.58;23.98;;;;;;;7.98;68.92;101131.28;12596840;23;20034;-60
2023/02/16 20:37:17;;;;;;;43.35;22.13;;;;;;;7.95;68.67;101122.56;12601675;23;20022;-60
2023/02/16 20:42:19;;;;;;;44.42;22.33;;;;;;;7.97;68.57;101122.41;12601218;23;20061;-60
2023/02/16 20:47:20;;;;;;;38.97;21.45;;;;;;;7.94;68.79;101118.19;12602394;23;20081;-60
2023/02/16 20:52:21;;;;;;;43.92;21.38;;;;;;;7.94;69.31;101117.38;12600086;23;20022;-62
2023/02/16 20:57:23;;;;;;;39.50;22.35;;;;;;;7.91;69.54;101112.28;12574513;23;20024;-62
2023/02/16 21:02:27;;;;;;;38.45;21.38;;;;;;;7.92;69.06;101114.81;12602586;23;20030;-58
2023/02/16 21:07:29;;;;;;;45.75;21.90;;;;;;;7.97;69.49;101109.03;12605047;23;20022;-62
2023/02/16 21:12:30;;;;;;;40.08;21.42;;;;;;;8.02;68.97;101111.31;12605272;23;20096;-59
2023/02/16 21:17:32;;;;;;;42.78;22.60;;;;;;;8.00;69.19;101108.78;12606875;23;20030;-60
2023/02/16 21:22:33;;;;;;;45.80;22.65;;;;;;;8.02;68.68;101103.28;12608761;23;20022;-61
2023/02/16 21:27:35;;;;;;;43.08;22.63;;;;;;;8.03;69.16;101091.56;12608102;23;20026;-60
2023/02/16 21:32:36;;;;;;;45.78;23.92;;;;;;;8.24;68.50;101089.59;12608277;23;20057;-61
2023/02/16 21:37:38;;;;;;;41.05;22.92;;;;;;;8.31;68.47;101079.13;12583949;23;20029;-59
2023/02/16 21:42:39;;;;;;;42.90;23.58;;;;;;;8.34;68.12;101079.69;12608867;23;20454;-59
2023/02/16 21:53:04;;;;;;;40.80;22.52;;;;;;;8.42;68.27;101078.19;12609358;23;20030;-60
2023/02/16 21:58:06;;;;;;;46.25;22.88;;;;;;;8.49;68.26;101071.22;12609393;23;20019;-59
2023/02/16 22:03:10;;;;;;;43.63;21.83;;;;;;;8.56;67.91;101074.19;12608841;23;20026;-60
2023/02/16 22:08:12;;;;;;;36.65;22.02;;;;;;;8.59;68.26;101066.72;12585139;23;20027;-59
2023/02/16 22:13:14;;;;;;;40.42;21.98;;;;;;;8.62;68.31;101061.06;12612840;23;20065;-61
2023/02/16 22:18:16;;;;;;;40.17;21.85;;;;;;;8.73;68.20;101068.94;12607581;23;20026;-59
2023/02/16 22:23:20;;;;;;;41.25;21.55;;;;;;;8.83;68.20;101060.00;12610454;23;20094;-59
2023/02/16 22:28:21;;;;;;;38.50;19.60;;;;;;;8.99;68.07;101070.94;12605296;23;20082;-58
2023/02/16 22:33:23;;;;;;;32.50;18.75;;;;;;;9.11;68.52;101066.22;12608922;23;20022;-59
2023/02/16 22:38:25;;;;;;;32.17;18.05;;;;;;;9.24;68.10;101069.41;12607063;23;20101;-60
2023/02/16 22:43:26;;;;;;;34.33;19.33;;;;;;;9.27;68.21;101076.31;12606392;23;20030;-59
2023/02/16 22:48:28;;;;;;;35.88;19.13;;;;;;;9.46;67.76;101065.47;12606798;23;20041;-59
2023/02/16 22:53:29;;;;;;;29.85;16.90;;;;;;;9.55;67.63;101068.25;12609441;23;20339;-60
2023/02/16 22:58:30;;;;;;;32.47;17.52;;;;;;;9.66;67.33;101065.34;12606039;23;20102;-59
2023/02/16 23:03:32;;;;;;;28.33;17.45;;;;;;;9.78;66.99;101071.34;12605648;23;20042;-60
2023/02/16 23:08:34;;;;;;;34.30;17.60;;;;;;;9.85;67.11;101075.94;12605614;23;20027;-59
2023/02/16 23:13:35;;;;;;;36.28;19.45;;;;;;;9.86;66.66;101077.63;12605193;23;20625;-59
2023/02/16 23:18:37;;;;;;;36.97;20.83;;;;;;;9.91;66.81;101077.16;12611303;23;20037;-59
2023/02/16 23:23:38;;;;;;;40.88;22.70;;;;;;;9.93;67.04;101080.53;12605798;23;20362;-60
2023/02/16 23:28:42;;;;;;;35.60;21.58;;;;;;;9.89;66.85;101074.63;12603107;23;20078;-58
2023/02/16 23:33:43;;;;;;;35.28;18.33;;;;;;;9.87;67.07;101073.09;12606521;23;20022;-59
2023/02/16 23:38:45;;;;;;;34.92;20.13;;;;;;;9.95;67.07;101065.09;12605486;23;20093;-60
2023/02/16 23:43:46;;;;;;;28.30;16.70;;;;;;;9.95;66.81;101067.78;12605754;23;20119;-59
2023/02/16 23:48:48;;;;;;;33.00;19.30;;;;;;;9.99;66.72;101061.13;12578118;23;20022;-59
2023/02/16 23:53:49;;;;;;;27.48;16.75;;;;;;;9.97;66.90;101051.50;12605077;23;20023;-59
2023/02/16 23:58:51;;;;;;;31.63;18.00;;;;;;;10.02;67.01;101052.75;12604364;23;20029;-59
